sensor_id;sensor_type;location;lat;lon;timestamp;temperature;humidity
67194;DHT22;54121;53.508;49.422;2023-03-13T00:00:28;9.90;65.90
67194;DHT22;54121;53.508;49.422;2023-03-13T00:02:54;9.80;66.20
67194;DHT22;54121;53.508;49.422;2023-03-13T00:05:21;9.80;66.50
67194;DHT22;54121;53.508;49.422;2023-03-13T00:07:47;9.80;66.30
67194;DHT22;54121;53.508;49.422;2023-03-13T00:10:14;9.70;66.50
67194;DHT22;54121;53.508;49.422;2023-03-13T00:12:40;10.10;65.20
67194;DHT22;54121;53.508;49.422;2023-03-13T00:15:07;10.10;64.40
67194;DHT22;54121;53.508;49.422;2023-03-13T00:17:33;9.80;66.00
67194;DHT22;54121;53.508;49.422;2023-03-13T00:20:00;9.60;66.70
67194;DHT22;54121;53.508;49.422;2023-03-13T00:22:26;9.80;66.40
67194;DHT22;54121;53.508;49.422;2023-03-13T00:24:52;9.70;66.60
67194;DHT22;54121;53.508;49.422;2023-03-13T00:27:19;9.80;66.80
67194;DHT22;54121;53.508;49.422;2023-03-13T00:29:45;9.80;66.30
67194;DHT22;54121;53.508;49.422;2023-03-13T00:32:12;9.80;66.10
67194;DHT22;54121;53.508;49.422;2023-03-13T00:34:38;9.60;67.00
67194;DHT22;54121;53.508;49.422;2023-03-13T00:37:05;9.60;67.60
67194;DHT22;54121;53.508;49.422;2023-03-13T00:39:31;9.50;67.90
67194;DHT22;54121;53.508;49.422;2023-03-13T00:41:58;9.70;66.90
67194;DHT22;54121;53.508;49.422;2023-03-13T00:44:26;9.80;66.50
67194;DHT22;54121;53.508;49.422;2023-03-13T00:46:52;9.70;66.90
67194;DHT22;54121;53.508;49.422;2023-03-13T00:49:20;9.60;67.20
67194;DHT22;54121;53.508;49.422;2023-03-13T00:51:47;9.50;67.60
67194;DHT22;54121;53.508;49.422;2023-03-13T00:54:14;9.60;67.50
67194;DHT22;54121;53.508;49.422;2023-03-13T00:56:41;9.50;68.30
67194;DHT22;54121;53.508;49.422;2023-03-13T00:59:08;9.80;67.80
67194;DHT22;54121;53.508;49.422;2023-03-13T01:01:35;9.50;68.20
67194;DHT22;54121;53.508;49.422;2023-03-13T01:04:08;9.80;67.40
67194;DHT22;54121;53.508;49.422;2023-03-13T01:06:38;9.90;66.70
67194;DHT22;54121;53.508;49.422;2023-03-13T01:09:14;9.80;65.90
67194;DHT22;54121;53.508;49.422;2023-03-13T01:11:43;10.00;66.00
67194;DHT22;54121;53.508;49.422;2023-03-13T01:14:16;9.70;67.30
67194;DHT22;54121;53.508;49.422;2023-03-13T01:16:43;9.60;67.50
67194;DHT22;54121;53.508;49.422;2023-03-13T01:19:13;9.50;68.30
67194;DHT22;54121;53.508;49.422;2023-03-13T01:21:41;9.50;68.10
67194;DHT22;54121;53.508;49.422;2023-03-13T01:24:10;9.50;67.90
67194;DHT22;54121;53.508;49.422;2023-03-13T01:26:40;9.60;67.90
67194;DHT22;54121;53.508;49.422;2023-03-13T01:29:07;9.50;68.70
67194;DHT22;54121;53.508;49.422;2023-03-13T01:31:34;9.70;67.70
67194;DHT22;54121;53.508;49.422;2023-03-13T01:34:03;9.60;67.70
67194;DHT22;54121;53.508;49.422;2023-03-13T01:36:30;9.40;68.80
67194;DHT22;54121;53.508;49.422;2023-03-13T01:38:59;9.40;69.50
67194;DHT22;54121;53.508;49.422;2023-03-13T01:41:27;9.30;69.50
67194;DHT22;54121;53.508;49.422;2023-03-13T01:43:55;9.50;69.00
67194;DHT22;54121;53.508;49.422;2023-03-13T01:46:23;9.40;70.70
67194;DHT22;54121;53.508;49.422;2023-03-13T01:51:38;9.20;72.90
67194;DHT22;54121;53.508;49.422;2023-03-13T01:54:10;9.20;74.20
67194;DHT22;54121;53.508;49.422;2023-03-13T01:59:18;9.10;75.10
67194;DHT22;54121;53.508;49.422;2023-03-13T02:01:46;8.80;76.80
67194;DHT22;54121;53.508;49.422;2023-03-13T02:04:16;8.80;77.20
67194;DHT22;54121;53.508;49.422;2023-03-13T02:06:47;9.00;76.20
67194;DHT22;54121;53.508;49.422;2023-03-13T02:09:23;8.90;77.80
67194;DHT22;54121;53.508;49.422;2023-03-13T02:12:06;9.20;75.70
67194;DHT22;54121;53.508;49.422;2023-03-13T02:14:36;9.00;78.10
67194;DHT22;54121;53.508;49.422;2023-03-13T02:17:05;8.90;77.20
67194;DHT22;54121;53.508;49.422;2023-03-13T02:19:41;9.20;76.40
67194;DHT22;54121;53.508;49.422;2023-03-13T02:22:52;8.90;78.10
67194;DHT22;54121;53.508;49.422;2023-03-13T02:27:44;8.70;78.40
67194;DHT22;54121;53.508;49.422;2023-03-13T02:30:14;8.80;78.40
67194;DHT22;54121;53.508;49.422;2023-03-13T02:32:42;9.10;76.70
67194;DHT22;54121;53.508;49.422;2023-03-13T02:35:12;8.70;77.70
67194;DHT22;54121;53.508;49.422;2023-03-13T02:37:43;8.80;77.60
67194;DHT22;54121;53.508;49.422;2023-03-13T02:40:13;8.90;76.90
67194;DHT22;54121;53.508;49.422;2023-03-13T02:42:43;8.80;77.70
67194;DHT22;54121;53.508;49.422;2023-03-13T02:45:13;8.60;78.40
67194;DHT22;54121;53.508;49.422;2023-03-13T02:47:40;8.60;78.90
67194;DHT22;54121;53.508;49.422;2023-03-13T02:50:07;8.80;77.30
67194;DHT22;54121;53.508;49.422;2023-03-13T02:52:37;8.60;79.10
67194;DHT22;54121;53.508;49.422;2023-03-13T02:55:17;8.70;80.30
67194;DHT22;54121;53.508;49.422;2023-03-13T02:57:47;8.50;81.10
67194;DHT22;54121;53.508;49.422;2023-03-13T03:00:15;8.50;81.70
67194;DHT22;54121;53.508;49.422;2023-03-13T03:02:43;8.70;80.10
67194;DHT22;54121;53.508;49.422;2023-03-13T03:05:12;8.60;81.40
67194;DHT22;54121;53.508;49.422;2023-03-13T03:07:38;8.40;82.60
67194;DHT22;54121;53.508;49.422;2023-03-13T03:10:05;8.30;83.80
67194;DHT22;54121;53.508;49.422;2023-03-13T03:12:32;8.30;84.30
67194;DHT22;54121;53.508;49.422;2023-03-13T03:14:58;8.30;85.30
67194;DHT22;54121;53.508;49.422;2023-03-13T03:17:25;8.20;85.40
67194;DHT22;54121;53.508;49.422;2023-03-13T03:19:52;8.20;85.80
67194;DHT22;54121;53.508;49.422;2023-03-13T03:22:18;8.10;86.50
67194;DHT22;54121;53.508;49.422;2023-03-13T03:24:44;8.00;88.30
67194;DHT22;54121;53.508;49.422;2023-03-13T03:27:11;7.80;89.80
67194;DHT22;54121;53.508;49.422;2023-03-13T03:29:37;7.80;90.40
67194;DHT22;54121;53.508;49.422;2023-03-13T03:32:04;7.70;90.40
67194;DHT22;54121;53.508;49.422;2023-03-13T03:34:30;7.70;90.50
67194;DHT22;54121;53.508;49.422;2023-03-13T03:36:57;7.70;90.30
67194;DHT22;54121;53.508;49.422;2023-03-13T03:39:24;7.60;90.90
67194;DHT22;54121;53.508;49.422;2023-03-13T03:41:50;7.60;91.60
67194;DHT22;54121;53.508;49.422;2023-03-13T03:44:17;7.50;92.10
67194;DHT22;54121;53.508;49.422;2023-03-13T03:46:43;7.50;92.10
67194;DHT22;54121;53.508;49.422;2023-03-13T03:49:10;7.50;92.50
67194;DHT22;54121;53.508;49.422;2023-03-13T03:51:37;7.40;92.70
67194;DHT22;54121;53.508;49.422;2023-03-13T03:54:04;7.40;92.90
67194;DHT22;54121;53.508;49.422;2023-03-13T03:56:31;7.40;92.80
67194;DHT22;54121;53.508;49.422;2023-03-13T03:58:57;7.40;93.00
67194;DHT22;54121;53.508;49.422;2023-03-13T04:01:24;7.40;93.20
67194;DHT22;54121;53.508;49.422;2023-03-13T04:03:51;7.30;93.30
67194;DHT22;54121;53.508;49.422;2023-03-13T04:06:18;7.50;93.10
67194;DHT22;54121;53.508;49.422;2023-03-13T04:08:45;7.60;92.70
67194;DHT22;54121;53.508;49.422;2023-03-13T04:11:12;7.80;92.50
67194;DHT22;54121;53.508;49.422;2023-03-13T04:13:38;7.80;92.20
67194;DHT22;54121;53.508;49.422;2023-03-13T04:16:09;8.10;92.30
67194;DHT22;54121;53.508;49.422;2023-03-13T04:18:36;8.30;91.00
67194;DHT22;54121;53.508;49.422;2023-03-13T04:21:04;8.20;90.90
67194;DHT22;54121;53.508;49.422;2023-03-13T04:23:31;8.30;91.00
67194;DHT22;54121;53.508;49.422;2023-03-13T04:25:58;8.40;90.90
67194;DHT22;54121;53.508;49.422;2023-03-13T04:28:25;8.40;91.20
67194;DHT22;54121;53.508;49.422;2023-03-13T04:30:51;8.40;90.40
67194;DHT22;54121;53.508;49.422;2023-03-13T04:33:23;8.50;90.40
67194;DHT22;54121;53.508;49.422;2023-03-13T04:35:51;8.30;90.70
67194;DHT22;54121;53.508;49.422;2023-03-13T04:38:17;8.50;91.00
67194;DHT22;54121;53.508;49.422;2023-03-13T04:40:45;8.60;90.80
67194;DHT22;54121;53.508;49.422;2023-03-13T04:43:13;8.60;90.60
67194;DHT22;54121;53.508;49.422;2023-03-13T04:45:40;8.70;90.30
67194;DHT22;54121;53.508;49.422;2023-03-13T04:48:07;8.70;89.50
67194;DHT22;54121;53.508;49.422;2023-03-13T04:50:33;8.80;89.90
67194;DHT22;54121;53.508;49.422;2023-03-13T04:53:00;9.00;88.20
67194;DHT22;54121;53.508;49.422;2023-03-13T04:55:27;8.60;89.40
67194;DHT22;54121;53.508;49.422;2023-03-13T04:57:54;8.50;90.70
67194;DHT22;54121;53.508;49.422;2023-03-13T05:00:21;8.50;90.80
67194;DHT22;54121;53.508;49.422;2023-03-13T05:02:48;8.90;91.20
67194;DHT22;54121;53.508;49.422;2023-03-13T05:05:15;8.70;89.80
67194;DHT22;54121;53.508;49.422;2023-03-13T05:07:42;8.70;90.70
67194;DHT22;54121;53.508;49.422;2023-03-13T05:10:09;8.70;90.80
67194;DHT22;54121;53.508;49.422;2023-03-13T05:12:36;8.70;89.80
67194;DHT22;54121;53.508;49.422;2023-03-13T05:15:03;9.00;89.60
67194;DHT22;54121;53.508;49.422;2023-03-13T05:17:30;8.90;89.00
67194;DHT22;54121;53.508;49.422;2023-03-13T05:19:57;9.00;88.30
67194;DHT22;54121;53.508;49.422;2023-03-13T05:22:24;9.10;87.90
67194;DHT22;54121;53.508;49.422;2023-03-13T05:24:51;9.30;86.50
67194;DHT22;54121;53.508;49.422;2023-03-13T05:27:17;9.00;87.40
67194;DHT22;54121;53.508;49.422;2023-03-13T05:29:44;9.00;87.60
67194;DHT22;54121;53.508;49.422;2023-03-13T05:32:11;9.00;89.00
67194;DHT22;54121;53.508;49.422;2023-03-13T05:34:38;9.40;90.60
67194;DHT22;54121;53.508;49.422;2023-03-13T05:37:04;9.90;89.10
67194;DHT22;54121;53.508;49.422;2023-03-13T05:39:31;10.10;86.70
67194;DHT22;54121;53.508;49.422;2023-03-13T05:41:58;9.80;83.20
67194;DHT22;54121;53.508;49.422;2023-03-13T05:44:25;9.70;81.40
67194;DHT22;54121;53.508;49.422;2023-03-13T05:46:52;9.70;83.90
67194;DHT22;54121;53.508;49.422;2023-03-13T05:49:18;9.40;83.40
67194;DHT22;54121;53.508;49.422;2023-03-13T05:51:47;9.30;83.50
67194;DHT22;54121;53.508;49.422;2023-03-13T05:54:14;9.10;86.00
67194;DHT22;54121;53.508;49.422;2023-03-13T05:56:40;9.10;85.30
67194;DHT22;54121;53.508;49.422;2023-03-13T05:59:07;9.20;86.90
67194;DHT22;54121;53.508;49.422;2023-03-13T06:01:34;9.30;90.70
67194;DHT22;54121;53.508;49.422;2023-03-13T06:04:00;9.50;90.40
67194;DHT22;54121;53.508;49.422;2023-03-13T06:06:27;9.60;87.60
67194;DHT22;54121;53.508;49.422;2023-03-13T06:08:54;9.60;86.00
67194;DHT22;54121;53.508;49.422;2023-03-13T06:11:20;9.90;83.60
67194;DHT22;54121;53.508;49.422;2023-03-13T06:13:47;10.00;80.70
67194;DHT22;54121;53.508;49.422;2023-03-13T06:16:16;10.20;78.50
67194;DHT22;54121;53.508;49.422;2023-03-13T06:18:42;10.20;77.10
67194;DHT22;54121;53.508;49.422;2023-03-13T06:21:09;10.50;75.40
67194;DHT22;54121;53.508;49.422;2023-03-13T06:23:35;10.50;74.40
67194;DHT22;54121;53.508;49.422;2023-03-13T06:26:02;10.80;73.50
67194;DHT22;54121;53.508;49.422;2023-03-13T06:28:29;11.20;74.20
67194;DHT22;54121;53.508;49.422;2023-03-13T06:31:00;11.40;72.70
67194;DHT22;54121;53.508;49.422;2023-03-13T06:33:28;11.50;71.70
67194;DHT22;54121;53.508;49.422;2023-03-13T06:35:56;11.70;70.70
67194;DHT22;54121;53.508;49.422;2023-03-13T06:38:24;11.70;70.00
67194;DHT22;54121;53.508;49.422;2023-03-13T06:40:50;11.80;70.30
67194;DHT22;54121;53.508;49.422;2023-03-13T06:43:18;11.90;68.30
67194;DHT22;54121;53.508;49.422;2023-03-13T06:45:46;11.80;67.20
67194;DHT22;54121;53.508;49.422;2023-03-13T06:48:12;11.80;69.10
67194;DHT22;54121;53.508;49.422;2023-03-13T06:50:40;12.00;66.40
67194;DHT22;54121;53.508;49.422;2023-03-13T06:53:17;11.80;65.60
67194;DHT22;54121;53.508;49.422;2023-03-13T06:55:44;11.80;65.90
67194;DHT22;54121;53.508;49.422;2023-03-13T06:58:12;11.70;66.00
67194;DHT22;54121;53.508;49.422;2023-03-13T07:00:39;11.70;66.00
67194;DHT22;54121;53.508;49.422;2023-03-13T07:03:07;11.70;65.00
67194;DHT22;54121;53.508;49.422;2023-03-13T07:05:34;11.80;65.40
67194;DHT22;54121;53.508;49.422;2023-03-13T07:08:01;11.90;65.00
67194;DHT22;54121;53.508;49.422;2023-03-13T07:10:30;12.10;63.80
67194;DHT22;54121;53.508;49.422;2023-03-13T07:12:57;12.40;63.70
67194;DHT22;54121;53.508;49.422;2023-03-13T07:15:24;12.50;63.70
67194;DHT22;54121;53.508;49.422;2023-03-13T07:17:51;12.60;62.10
67194;DHT22;54121;53.508;49.422;2023-03-13T07:20:17;12.70;61.80
67194;DHT22;54121;53.508;49.422;2023-03-13T07:22:50;13.00;60.90
67194;DHT22;54121;53.508;49.422;2023-03-13T07:25:17;13.10;59.80
67194;DHT22;54121;53.508;49.422;2023-03-13T07:27:44;13.20;60.50
67194;DHT22;54121;53.508;49.422;2023-03-13T07:30:11;13.20;60.20
67194;DHT22;54121;53.508;49.422;2023-03-13T07:32:38;13.10;60.00
67194;DHT22;54121;53.508;49.422;2023-03-13T07:35:05;13.10;59.80
67194;DHT22;54121;53.508;49.422;2023-03-13T07:37:32;13.00;60.00
67194;DHT22;54121;53.508;49.422;2023-03-13T07:39:59;13.00;59.70
67194;DHT22;54121;53.508;49.422;2023-03-13T07:42:25;13.10;59.40
67194;DHT22;54121;53.508;49.422;2023-03-13T07:44:52;13.00;60.20
67194;DHT22;54121;53.508;49.422;2023-03-13T07:47:19;13.10;60.50
67194;DHT22;54121;53.508;49.422;2023-03-13T07:49:46;12.90;59.00
67194;DHT22;54121;53.508;49.422;2023-03-13T07:52:13;13.10;58.90
67194;DHT22;54121;53.508;49.422;2023-03-13T07:54:40;13.20;58.20
67194;DHT22;54121;53.508;49.422;2023-03-13T07:57:07;13.00;58.60
67194;DHT22;54121;53.508;49.422;2023-03-13T07:59:33;13.10;58.40
67194;DHT22;54121;53.508;49.422;2023-03-13T08:02:01;13.10;57.60
67194;DHT22;54121;53.508;49.422;2023-03-13T08:04:27;13.10;57.10
67194;DHT22;54121;53.508;49.422;2023-03-13T08:06:54;13.00;57.20
67194;DHT22;54121;53.508;49.422;2023-03-13T08:09:22;13.20;57.10
67194;DHT22;54121;53.508;49.422;2023-03-13T08:11:49;13.20;58.10
67194;DHT22;54121;53.508;49.422;2023-03-13T08:14:16;13.00;56.70
67194;DHT22;54121;53.508;49.422;2023-03-13T08:16:42;13.10;58.00
67194;DHT22;54121;53.508;49.422;2023-03-13T08:19:09;13.00;57.90
67194;DHT22;54121;53.508;49.422;2023-03-13T08:21:37;13.00;57.00
67194;DHT22;54121;53.508;49.422;2023-03-13T08:24:06;13.30;57.10
67194;DHT22;54121;53.508;49.422;2023-03-13T08:26:34;13.30;55.70
67194;DHT22;54121;53.508;49.422;2023-03-13T08:29:08;13.30;54.00
67194;DHT22;54121;53.508;49.422;2023-03-13T08:31:48;13.30;56.00
67194;DHT22;54121;53.508;49.422;2023-03-13T08:34:17;13.40;56.00
67194;DHT22;54121;53.508;49.422;2023-03-13T08:36:46;13.20;57.50
67194;DHT22;54121;53.508;49.422;2023-03-13T08:39:15;13.40;58.60
67194;DHT22;54121;53.508;49.422;2023-03-13T08:41:43;13.40;57.00
67194;DHT22;54121;53.508;49.422;2023-03-13T08:44:15;13.40;57.80
67194;DHT22;54121;53.508;49.422;2023-03-13T08:46:42;13.40;57.10
67194;DHT22;54121;53.508;49.422;2023-03-13T08:49:10;13.20;57.80
67194;DHT22;54121;53.508;49.422;2023-03-13T08:51:37;13.30;58.70
67194;DHT22;54121;53.508;49.422;2023-03-13T08:54:05;13.30;57.70
67194;DHT22;54121;53.508;49.422;2023-03-13T08:56:32;13.10;53.20
67194;DHT22;54121;53.508;49.422;2023-03-13T08:59:02;13.20;60.20
67194;DHT22;54121;53.508;49.422;2023-03-13T09:01:32;13.40;59.10
67194;DHT22;54121;53.508;49.422;2023-03-13T09:03:59;13.50;58.70
67194;DHT22;54121;53.508;49.422;2023-03-13T09:06:26;14.00;60.10
67194;DHT22;54121;53.508;49.422;2023-03-13T09:08:57;14.10;58.50
67194;DHT22;54121;53.508;49.422;2023-03-13T09:11:26;14.10;57.60
67194;DHT22;54121;53.508;49.422;2023-03-13T09:13:57;14.30;58.90
67194;DHT22;54121;53.508;49.422;2023-03-13T09:16:27;14.40;58.10
67194;DHT22;54121;53.508;49.422;2023-03-13T09:18:55;14.60;57.60
67194;DHT22;54121;53.508;49.422;2023-03-13T09:21:31;14.60;57.20
67194;DHT22;54121;53.508;49.422;2023-03-13T09:23:58;14.90;57.20
67194;DHT22;54121;53.508;49.422;2023-03-13T09:26:26;15.00;56.80
67194;DHT22;54121;53.508;49.422;2023-03-13T09:28:54;15.30;54.90
67194;DHT22;54121;53.508;49.422;2023-03-13T09:31:23;15.40;55.60
67194;DHT22;54121;53.508;49.422;2023-03-13T09:33:51;15.30;55.40
67194;DHT22;54121;53.508;49.422;2023-03-13T09:36:18;15.40;54.70
67194;DHT22;54121;53.508;49.422;2023-03-13T09:38:46;15.40;54.80
67194;DHT22;54121;53.508;49.422;2023-03-13T09:43:52;15.70;55.60
67194;DHT22;54121;53.508;49.422;2023-03-13T09:46:30;15.80;55.10
67194;DHT22;54121;53.508;49.422;2023-03-13T09:51:50;15.90;52.20
67194;DHT22;54121;53.508;49.422;2023-03-13T09:54:33;15.90;50.70
67194;DHT22;54121;53.508;49.422;2023-03-13T10:02:37;16.20;49.00
67194;DHT22;54121;53.508;49.422;2023-03-13T10:05:14;16.10;47.90
67194;DHT22;54121;53.508;49.422;2023-03-13T10:07:42;16.20;47.20
67194;DHT22;54121;53.508;49.422;2023-03-13T10:10:32;16.10;46.40
67194;DHT22;54121;53.508;49.422;2023-03-13T10:13:14;16.20;48.70
67194;DHT22;54121;53.508;49.422;2023-03-13T10:18:21;15.90;48.70
67194;DHT22;54121;53.508;49.422;2023-03-13T10:20:50;16.60;47.90
67194;DHT22;54121;53.508;49.422;2023-03-13T10:25:52;16.90;49.20
67194;DHT22;54121;53.508;49.422;2023-03-13T10:28:19;16.80;45.60
67194;DHT22;54121;53.508;49.422;2023-03-13T10:30:49;17.50;45.50
67194;DHT22;54121;53.508;49.422;2023-03-13T10:33:23;17.80;44.80
67194;DHT22;54121;53.508;49.422;2023-03-13T10:36:06;17.80;42.70
67194;DHT22;54121;53.508;49.422;2023-03-13T10:38:50;18.10;41.20
67194;DHT22;54121;53.508;49.422;2023-03-13T10:41:26;17.90;38.10
67194;DHT22;54121;53.508;49.422;2023-03-13T10:44:02;17.80;34.40
67194;DHT22;54121;53.508;49.422;2023-03-13T10:46:32;17.50;33.20
67194;DHT22;54121;53.508;49.422;2023-03-13T10:49:03;18.10;34.30
67194;DHT22;54121;53.508;49.422;2023-03-13T10:51:38;18.60;33.40
67194;DHT22;54121;53.508;49.422;2023-03-13T10:54:15;18.80;31.60
67194;DHT22;54121;53.508;49.422;2023-03-13T10:56:45;18.80;32.30
67194;DHT22;54121;53.508;49.422;2023-03-13T10:59:23;17.90;30.10
67194;DHT22;54121;53.508;49.422;2023-03-13T11:01:51;16.70;30.70
67194;DHT22;54121;53.508;49.422;2023-03-13T11:04:31;16.80;35.00
67194;DHT22;54121;53.508;49.422;2023-03-13T11:07:04;16.40;32.60
67194;DHT22;54121;53.508;49.422;2023-03-13T11:09:31;15.90;31.90
67194;DHT22;54121;53.508;49.422;2023-03-13T11:12:17;16.40;32.00
67194;DHT22;54121;53.508;49.422;2023-03-13T11:14:45;18.80;31.50
67194;DHT22;54121;53.508;49.422;2023-03-13T11:20:28;19.90;27.80
67194;DHT22;54121;53.508;49.422;2023-03-13T11:31:28;21.30;25.50
67194;DHT22;54121;53.508;49.422;2023-03-13T11:36:59;21.30;23.80
67194;DHT22;54121;53.508;49.422;2023-03-13T11:45:53;22.00;22.80
67194;DHT22;54121;53.508;49.422;2023-03-13T11:51:23;22.60;20.90
67194;DHT22;54121;53.508;49.422;2023-03-13T11:56:55;23.00;20.20
67194;DHT22;54121;53.508;49.422;2023-03-13T11:59:25;21.70;21.70
67194;DHT22;54121;53.508;49.422;2023-03-13T12:05:00;20.90;22.10
67194;DHT22;54121;53.508;49.422;2023-03-13T12:10:13;20.60;22.70
67194;DHT22;54121;53.508;49.422;2023-03-13T12:12:55;20.40;23.30
67194;DHT22;54121;53.508;49.422;2023-03-13T12:15:31;20.40;22.80
67194;DHT22;54121;53.508;49.422;2023-03-13T12:18:24;20.30;23.40
67194;DHT22;54121;53.508;49.422;2023-03-13T12:21:05;20.50;23.10
67194;DHT22;54121;53.508;49.422;2023-03-13T12:26:16;21.10;21.90
67194;DHT22;54121;53.508;49.422;2023-03-13T12:29:16;21.20;21.80
67194;DHT22;54121;53.508;49.422;2023-03-13T12:32:31;21.00;21.90
67194;DHT22;54121;53.508;49.422;2023-03-13T12:37:52;22.40;19.70
67194;DHT22;54121;53.508;49.422;2023-03-13T12:43:09;25.50;16.30
67194;DHT22;54121;53.508;49.422;2023-03-13T12:51:33;24.60;16.20
67194;DHT22;54121;53.508;49.422;2023-03-13T12:57:01;25.00;16.60
67194;DHT22;54121;53.508;49.422;2023-03-13T12:59:41;25.20;15.40
67194;DHT22;54121;53.508;49.422;2023-03-13T13:02:28;25.10;16.20
67194;DHT22;54121;53.508;49.422;2023-03-13T13:05:20;24.30;16.60
67194;DHT22;54121;53.508;49.422;2023-03-13T13:07:55;23.70;17.20
67194;DHT22;54121;53.508;49.422;2023-03-13T13:10:26;23.50;17.50
67194;DHT22;54121;53.508;49.422;2023-03-13T13:16:06;23.60;17.20
67194;DHT22;54121;53.508;49.422;2023-03-13T13:18:33;22.80;18.00
67194;DHT22;54121;53.508;49.422;2023-03-13T13:23:36;22.00;18.80
67194;DHT22;54121;53.508;49.422;2023-03-13T13:28:59;22.30;17.60
67194;DHT22;54121;53.508;49.422;2023-03-13T13:31:53;22.10;18.70
67194;DHT22;54121;53.508;49.422;2023-03-13T13:37:01;21.10;18.60
67194;DHT22;54121;53.508;49.422;2023-03-13T13:39:45;21.10;18.40
67194;DHT22;54121;53.508;49.422;2023-03-13T13:45:21;22.80;18.40
67194;DHT22;54121;53.508;49.422;2023-03-13T13:48:12;22.00;18.10
67194;DHT22;54121;53.508;49.422;2023-03-13T13:50:38;20.70;18.70
67194;DHT22;54121;53.508;49.422;2023-03-13T13:53:30;20.50;19.70
67194;DHT22;54121;53.508;49.422;2023-03-13T13:55:58;20.40;19.10
67194;DHT22;54121;53.508;49.422;2023-03-13T13:58:28;20.20;19.40
67194;DHT22;54121;53.508;49.422;2023-03-13T14:01:01;19.70;20.00
67194;DHT22;54121;53.508;49.422;2023-03-13T14:03:38;18.90;21.00
67194;DHT22;54121;53.508;49.422;2023-03-13T14:06:15;18.80;21.20
67194;DHT22;54121;53.508;49.422;2023-03-13T14:08:44;18.00;22.40
67194;DHT22;54121;53.508;49.422;2023-03-13T14:11:34;18.30;22.10
67194;DHT22;54121;53.508;49.422;2023-03-13T14:14:15;18.00;21.20
67194;DHT22;54121;53.508;49.422;2023-03-13T14:17:03;18.40;21.50
67194;DHT22;54121;53.508;49.422;2023-03-13T14:19:41;18.10;21.60
67194;DHT22;54121;53.508;49.422;2023-03-13T14:22:09;17.60;22.90
67194;DHT22;54121;53.508;49.422;2023-03-13T14:24:37;16.60;24.10
67194;DHT22;54121;53.508;49.422;2023-03-13T14:27:17;16.50;24.00
67194;DHT22;54121;53.508;49.422;2023-03-13T14:30:07;16.40;24.80
67194;DHT22;54121;53.508;49.422;2023-03-13T14:32:37;15.70;25.50
67194;DHT22;54121;53.508;49.422;2023-03-13T14:35:05;15.80;25.10
67194;DHT22;54121;53.508;49.422;2023-03-13T14:37:48;15.90;25.20
67194;DHT22;54121;53.508;49.422;2023-03-13T14:40:26;15.70;25.00
67194;DHT22;54121;53.508;49.422;2023-03-13T14:42:58;15.10;26.20
67194;DHT22;54121;53.508;49.422;2023-03-13T14:45:33;15.50;25.80
67194;DHT22;54121;53.508;49.422;2023-03-13T14:48:16;15.10;26.00
67194;DHT22;54121;53.508;49.422;2023-03-13T14:50:45;14.90;26.70
67194;DHT22;54121;53.508;49.422;2023-03-13T14:53:20;14.20;27.50
67194;DHT22;54121;53.508;49.422;2023-03-13T14:56:07;14.50;27.00
67194;DHT22;54121;53.508;49.422;2023-03-13T14:58:35;14.30;27.50
67194;DHT22;54121;53.508;49.422;2023-03-13T15:01:33;14.10;27.70
67194;DHT22;54121;53.508;49.422;2023-03-13T15:04:00;13.80;28.00
67194;DHT22;54121;53.508;49.422;2023-03-13T15:06:27;13.50;28.80
67194;DHT22;54121;53.508;49.422;2023-03-13T15:09:14;13.40;28.70
67194;DHT22;54121;53.508;49.422;2023-03-13T15:11:58;13.60;28.40
67194;DHT22;54121;53.508;49.422;2023-03-13T15:14:35;13.50;28.50
67194;DHT22;54121;53.508;49.422;2023-03-13T15:17:26;13.40;28.90
67194;DHT22;54121;53.508;49.422;2023-03-13T15:20:12;13.30;28.70
67194;DHT22;54121;53.508;49.422;2023-03-13T15:22:41;13.20;29.40
67194;DHT22;54121;53.508;49.422;2023-03-13T15:25:20;12.90;29.80
67194;DHT22;54121;53.508;49.422;2023-03-13T15:27:48;12.80;29.60
67194;DHT22;54121;53.508;49.422;2023-03-13T15:30:17;12.70;30.00
67194;DHT22;54121;53.508;49.422;2023-03-13T15:32:45;12.70;30.20
67194;DHT22;54121;53.508;49.422;2023-03-13T15:35:30;12.90;29.40
67194;DHT22;54121;53.508;49.422;2023-03-13T15:37:58;13.00;29.10
67194;DHT22;54121;53.508;49.422;2023-03-13T15:40:27;12.70;29.60
67194;DHT22;54121;53.508;49.422;2023-03-13T15:42:56;12.70;29.90
67194;DHT22;54121;53.508;49.422;2023-03-13T15:45:23;12.80;29.90
67194;DHT22;54121;53.508;49.422;2023-03-13T15:47:49;12.70;30.30
67194;DHT22;54121;53.508;49.422;2023-03-13T15:50:19;12.40;31.70
67194;DHT22;54121;53.508;49.422;2023-03-13T15:52:46;12.20;32.30
67194;DHT22;54121;53.508;49.422;2023-03-13T15:55:13;11.90;33.00
67194;DHT22;54121;53.508;49.422;2023-03-13T15:57:44;11.70;33.90
67194;DHT22;54121;53.508;49.422;2023-03-13T16:00:21;11.60;34.40
67194;DHT22;54121;53.508;49.422;2023-03-13T16:02:53;11.50;34.40
67194;DHT22;54121;53.508;49.422;2023-03-13T16:05:20;11.60;34.00
67194;DHT22;54121;53.508;49.422;2023-03-13T16:07:47;11.10;34.80
67194;DHT22;54121;53.508;49.422;2023-03-13T16:10:21;10.70;35.70
67194;DHT22;54121;53.508;49.422;2023-03-13T16:12:49;10.30;36.70
67194;DHT22;54121;53.508;49.422;2023-03-13T16:15:17;10.00;37.60
67194;DHT22;54121;53.508;49.422;2023-03-13T16:17:46;9.60;38.40
67194;DHT22;54121;53.508;49.422;2023-03-13T16:20:18;9.30;39.50
67194;DHT22;54121;53.508;49.422;2023-03-13T16:22:48;8.90;39.80
67194;DHT22;54121;53.508;49.422;2023-03-13T16:25:16;8.70;40.10
67194;DHT22;54121;53.508;49.422;2023-03-13T16:27:43;8.70;40.50
67194;DHT22;54121;53.508;49.422;2023-03-13T16:30:23;8.60;40.70
67194;DHT22;54121;53.508;49.422;2023-03-13T16:32:51;8.50;40.70
67194;DHT22;54121;53.508;49.422;2023-03-13T16:35:19;8.40;40.80
67194;DHT22;54121;53.508;49.422;2023-03-13T16:37:54;8.30;40.80
67194;DHT22;54121;53.508;49.422;2023-03-13T16:40:29;8.20;41.10
67194;DHT22;54121;53.508;49.422;2023-03-13T16:42:56;8.10;41.10
67194;DHT22;54121;53.508;49.422;2023-03-13T16:45:24;8.00;41.80
67194;DHT22;54121;53.508;49.422;2023-03-13T16:47:51;7.90;42.20
67194;DHT22;54121;53.508;49.422;2023-03-13T16:50:32;7.90;42.20
67194;DHT22;54121;53.508;49.422;2023-03-13T16:53:00;7.90;42.10
67194;DHT22;54121;53.508;49.422;2023-03-13T16:55:26;7.90;41.70
67194;DHT22;54121;53.508;49.422;2023-03-13T16:57:55;7.90;41.50
67194;DHT22;54121;53.508;49.422;2023-03-13T17:00:25;7.80;42.20
67194;DHT22;54121;53.508;49.422;2023-03-13T17:02:53;7.70;43.10
67194;DHT22;54121;53.508;49.422;2023-03-13T17:05:21;7.60;43.30
67194;DHT22;54121;53.508;49.422;2023-03-13T17:07:50;7.50;43.20
67194;DHT22;54121;53.508;49.422;2023-03-13T17:10:22;7.50;43.30